Time;durP1;ratioP1;P1;durP2;ratioP2;P2;SDS_P1;SDS_P2;PMS_P1;PMS_P2;Temp;Humidity;BMP_temperature;BMP_pressure;BME280_temperature;BME280_humidity;BME280_pressure;Samples;Min_cycle;Max_cycle;Signal;HPM_P1;HPM_P2
2023/12/18 00:01:13;;;;;;;6.75;4.95;;;;;;;24.65;32.43;101416.28;4987443;28;20022;-46
2023/12/18 00:03:38;;;;;;;6.90;4.65;;;;;;;24.65;32.39;101417.06;4987930;28;20069;-49
2023/12/18 00:06:04;;;;;;;6.60;4.50;;;;;;;24.65;32.40;101416.28;4987274;28;20026;-49
2023/12/18 00:08:29;;;;;;;6.60;4.20;;;;;;;24.64;32.25;101414.75;4987184;28;20040;-45
2023/12/18 00:10:54;;;;;;;6.30;4.30;;;;;;;24.61;32.32;101415.66;4986870;28;20414;-49
2023/12/18 00:13:20;;;;;;;7.07;4.05;;;;;;;24.65;32.25;101405.25;4987883;28;20030;-45
2023/12/18 00:15:45;;;;;;;6.82;4.60;;;;;;;24.64;32.22;101414.75;4986648;28;20045;-47
2023/12/18 00:18:10;;;;;;;6.65;4.40;;;;;;;24.61;32.23;101407.38;4985670;28;20466;-45
2023/12/18 00:20:36;;;;;;;6.07;4.13;;;;;;;24.63;32.38;101404.91;4985465;28;20037;-45
2023/12/18 00:23:01;;;;;;;6.40;4.30;;;;;;;24.61;32.28;101401.84;4983471;28;20022;-48
2023/12/18 00:25:27;;;;;;;6.28;4.18;;;;;;;24.61;32.27;101397.09;4986315;28;20422;-45
2023/12/18 00:27:52;;;;;;;7.13;4.32;;;;;;;24.61;32.29;101401.84;4989010;28;20081;-49
2023/12/18 00:30:17;;;;;;;6.50;4.05;;;;;;;24.61;32.38;101399.06;4988941;28;20045;-46
2023/12/18 00:32:43;;;;;;;6.38;3.88;;;;;;;24.58;32.41;101405.53;4985687;28;20034;-45
2023/12/18 00:35:08;;;;;;;6.38;4.05;;;;;;;24.57;32.53;101409.50;4983129;28;20500;-45
2023/12/18 00:37:34;;;;;;;6.00;3.83;;;;;;;24.58;32.35;101395.22;4987519;28;20081;-46
2023/12/18 00:39:59;;;;;;;6.32;4.25;;;;;;;24.58;32.46;101397.25;4983142;28;20034;-51
2023/12/18 00:42:25;;;;;;;5.60;3.70;;;;;;;24.55;32.61;101400.91;4987053;28;20030;-45
2023/12/18 00:44:50;;;;;;;6.18;3.78;;;;;;;24.57;32.49;101407.50;4989619;28;20529;-47
2023/12/18 00:47:15;;;;;;;5.60;3.67;;;;;;;24.57;32.52;101404.75;4986252;28;20026;-45
2023/12/18 00:49:41;;;;;;;5.90;3.58;;;;;;;24.57;32.44;101410.28;4988912;28;20030;-45
2023/12/18 00:52:06;;;;;;;6.53;3.90;;;;;;;24.56;32.47;101405.97;4985741;28;20075;-46
2023/12/18 00:54:31;;;;;;;5.60;3.60;;;;;;;24.58;32.30;101411.03;4986737;28;20517;-45
2023/12/18 00:56:57;;;;;;;5.93;3.55;;;;;;;24.57;32.49;101404.75;4988368;28;20018;-46
2023/12/18 00:59:22;;;;;;;5.90;3.35;;;;;;;24.58;32.30;101402.75;4988228;28;20022;-52
2023/12/18 01:01:47;;;;;;;5.45;3.40;;;;;;;24.57;32.28;101395.69;4989279;28;20196;-46
2023/12/18 01:04:13;;;;;;;6.00;3.60;;;;;;;24.61;32.33;101388.03;4984550;28;20022;-46
2023/12/18 01:06:38;;;;;;;5.78;3.70;;;;;;;24.60;32.33;101386.50;4989504;28;20113;-48
2023/12/18 01:09:04;;;;;;;5.97;3.70;;;;;;;24.59;32.40;101385.72;4989592;28;20026;-48
2023/12/18 01:11:29;;;;;;;5.47;3.28;;;;;;;24.59;32.29;101374.69;4985299;28;20443;-45
2023/12/18 01:13:54;;;;;;;5.82;3.30;;;;;;;24.59;32.46;101365.63;4979100;28;20019;-49
2023/12/18 01:16:20;;;;;;;5.30;3.28;;;;;;;24.60;32.38;101364.41;4988923;28;20045;-50
2023/12/18 01:18:45;;;;;;;5.40;3.25;;;;;;;24.59;32.23;101354.59;4987836;28;20030;-45
2023/12/18 01:21:13;;;;;;;5.20;3.10;;;;;;;24.61;32.23;101338.34;4986032;28;20080;-46
2023/12/18 01:23:38;;;;;;;5.30;2.92;;;;;;;24.58;32.20;101353.81;4986973;28;20033;-46
2023/12/18 01:26:03;;;;;;;5.45;3.20;;;;;;;24.55;32.18;101342.91;4989696;28;20050;-45
2023/12/18 01:28:29;;;;;;;5.55;3.20;;;;;;;24.54;32.25;101350.44;4988084;28;20022;-52
2023/12/18 01:30:54;;;;;;;5.15;2.95;;;;;;;24.52;32.24;101357.63;4987514;28;20119;-57
2023/12/18 01:33:19;;;;;;;5.40;3.20;;;;;;;24.51;32.37;101361.59;4985850;28;20026;-49
2023/12/18 01:35:45;;;;;;;6.15;3.42;;;;;;;24.50;32.40;101365.56;4985008;28;20084;-48
2023/12/18 01:38:10;;;;;;;5.25;2.97;;;;;;;24.50;32.30;101366.34;4986247;28;20485;-47
2023/12/18 01:40:35;;;;;;;5.00;3.00;;;;;;;24.50;32.34;101371.09;4989502;28;20026;-47
2023/12/18 01:43:01;;;;;;;5.60;3.10;;;;;;;24.52;32.43;101368.66;4986849;28;20084;-47
2023/12/18 01:45:26;;;;;;;5.10;2.95;;;;;;;24.51;32.41;101362.38;4982317;28;20027;-45
2023/12/18 01:47:51;;;;;;;4.43;2.55;;;;;;;24.51;32.38;101359.59;4983123;28;20478;-51
2023/12/18 01:50:17;;;;;;;5.60;2.70;;;;;;;24.51;32.31;101356.06;4985478;28;20068;-45
2023/12/18 01:52:42;;;;;;;5.22;2.90;;;;;;;24.49;32.34;101350.22;4985715;28;20026;-47
2023/12/18 01:55:08;;;;;;;4.75;2.70;;;;;;;24.49;32.15;101347.47;4986739;28;20026;-45
2023/12/18 01:57:33;;;;;;;4.88;2.90;;;;;;;24.52;32.26;101338.28;4984383;28;21053;-47
2023/12/18 01:59:59;;;;;;;4.95;2.55;;;;;;;24.50;32.25;101333.22;4981858;28;20037;-46
2023/12/18 02:02:24;;;;;;;4.68;2.50;;;;;;;24.53;32.09;101337.06;4985700;28;20478;-50
2023/12/18 02:04:50;;;;;;;4.88;2.75;;;;;;;24.51;32.32;101339.50;4986718;28;20030;-45
2023/12/18 02:07:15;;;;;;;4.57;2.53;;;;;;;24.53;32.07;101337.06;4987853;28;20076;-47
2023/12/18 02:09:41;;;;;;;5.00;2.90;;;;;;;24.58;32.11;101328.22;4987715;28;20433;-50
2023/12/18 02:12:07;;;;;;;4.95;2.78;;;;;;;24.52;32.22;101319.75;4984314;28;20628;-48
2023/12/18 02:14:32;;;;;;;4.90;2.50;;;;;;;24.50;32.15;101315.88;4985792;28;20657;-47
2023/12/18 02:16:58;;;;;;;4.43;2.40;;;;;;;24.48;32.15;101313.56;4985686;28;20018;-48
2023/12/18 02:19:24;;;;;;;5.00;2.60;;;;;;;24.52;32.27;101313.44;4985711;28;20029;-48
2023/12/18 02:21:49;;;;;;;4.22;2.30;;;;;;;24.52;32.08;101307.94;4989355;28;20023;-53
2023/12/18 02:24:15;;;;;;;5.00;2.70;;;;;;;24.50;32.13;101310.38;4985830;28;20033;-50
2023/12/18 02:26:40;;;;;;;4.70;2.53;;;;;;;24.53;32.12;101320.50;4988164;28;20038;-47
2023/12/18 02:29:05;;;;;;;4.50;2.47;;;;;;;24.49;32.34;101320.63;4987009;28;20032;-46
2023/12/18 02:31:31;;;;;;;4.50;2.28;;;;;;;24.49;32.18;101328.16;4985895;28;20022;-45
2023/12/18 02:33:56;;;;;;;4.90;2.38;;;;;;;24.48;32.14;101332.91;4987055;28;20038;-48
2023/12/18 02:36:22;;;;;;;4.35;2.28;;;;;;;24.49;32.14;101333.66;4985816;28;20021;-50
2023/12/18 02:38:47;;;;;;;4.80;2.53;;;;;;;24.46;32.37;101318.78;4986944;28;20029;-50
2023/12/18 02:41:12;;;;;;;5.00;2.30;;;;;;;24.49;32.20;101317.09;4987634;28;20562;-45
2023/12/18 02:43:38;;;;;;;4.30;2.10;;;;;;;24.49;32.12;101317.09;4987307;28;20030;-46
2023/12/18 02:46:03;;;;;;;4.47;2.50;;;;;;;24.47;32.29;101306.53;4987285;28;20026;-45
2023/12/18 02:48:28;;;;;;;4.38;2.38;;;;;;;24.48;32.19;101307.28;4985198;28;20050;-46
2023/12/18 02:50:54;;;;;;;4.68;2.40;;;;;;;24.46;32.32;101293.94;4985553;28;20026;-50
2023/12/18 02:53:19;;;;;;;4.38;2.25;;;;;;;24.48;32.45;101290.72;4985017;28;20061;-48
2023/12/18 02:55:45;;;;;;;4.00;2.10;;;;;;;24.47;32.19;101286.44;4987549;28;20145;-45
2023/12/18 02:58:10;;;;;;;4.28;2.10;;;;;;;24.49;32.20;101284.75;4988774;28;20028;-47
2023/12/18 03:00:36;;;;;;;4.25;2.28;;;;;;;24.46;32.15;101274.63;4990277;28;20057;-50
2023/12/18 03:03:01;;;;;;;4.25;2.30;;;;;;;24.50;32.26;101274.50;4985838;28;20022;-45
2023/12/18 03:05:26;;;;;;;4.40;2.13;;;;;;;24.48;32.36;101269.41;4986534;28;20247;-49
2023/12/18 03:07:52;;;;;;;4.35;2.13;;;;;;;24.49;32.27;101270.19;4985939;28;20034;-49
2023/12/18 03:10:17;;;;;;;4.10;2.13;;;;;;;24.50;32.25;101266.97;4989314;28;20026;-47
2023/12/18 03:12:42;;;;;;;3.92;1.95;;;;;;;24.54;32.13;101266.84;4988233;28;20473;-47
2023/12/18 03:15:09;;;;;;;4.25;2.00;;;;;;;24.51;32.29;101260.25;4988718;28;20026;-45
2023/12/18 03:17:34;;;;;;;4.45;2.20;;;;;;;24.52;32.11;101263.75;4987167;28;20019;-49
2023/12/18 03:20:00;;;;;;;4.18;2.00;;;;;;;24.48;32.31;101263.13;4986725;28;20038;-45
2023/12/18 03:22:25;;;;;;;3.85;1.88;;;;;;;24.48;32.28;101252.09;4990028;28;20053;-48
2023/12/18 03:24:50;;;;;;;3.70;1.88;;;;;;;24.48;32.35;101257.59;4990299;28;20022;-49
2023/12/18 03:27:16;;;;;;;4.55;2.20;;;;;;;24.46;32.52;101266.34;4988133;28;20083;-47
2023/12/18 03:29:41;;;;;;;3.65;1.90;;;;;;;24.48;32.30;101277.69;4988912;28;20026;-47
2023/12/18 03:32:07;;;;;;;3.80;1.83;;;;;;;24.48;32.44;101274.94;4988391;28;20478;-45
2023/12/18 03:34:32;;;;;;;3.92;1.90;;;;;;;24.51;32.36;101271.28;4987826;28;20087;-45
2023/12/18 03:36:58;;;;;;;3.67;1.80;;;;;;;24.52;32.24;101280.31;4989373;28;20375;-49
2023/12/18 03:39:23;;;;;;;4.28;2.00;;;;;;;24.53;32.11;101274.34;4990354;28;20028;-45
2023/12/18 03:41:48;;;;;;;3.97;2.00;;;;;;;24.53;32.38;101276.34;4988990;28;20038;-47
2023/12/18 03:44:14;;;;;;;3.80;2.00;;;;;;;24.54;32.43;101272.38;4987236;28;20041;-50
2023/12/18 03:46:39;;;;;;;3.55;1.75;;;;;;;24.55;32.30;101271.16;4985346;28;20026;-48
2023/12/18 03:49:04;;;;;;;3.90;2.03;;;;;;;24.56;32.49;101269.94;4986060;28;20505;-45
2023/12/18 03:51:30;;;;;;;3.85;1.90;;;;;;;24.56;32.43;101262.41;4984323;28;20486;-48
2023/12/18 03:53:55;;;;;;;3.53;1.80;;;;;;;24.59;32.49;101274.53;4984878;28;20018;-47
2023/12/18 03:56:21;;;;;;;3.63;1.70;;;;;;;24.60;32.36;101271.31;4990145;28;20029;-45
2023/12/18 03:58:46;;;;;;;4.50;1.77;;;;;;;24.62;32.41;101257.06;4989330;28;20037;-46
2023/12/18 04:01:11;;;;;;;4.20;1.90;;;;;;;24.64;32.22;101260.91;4988689;28;20432;-47
2023/12/18 04:03:37;;;;;;;4.07;2.08;;;;;;;24.65;32.26;101253.41;4984987;28;20026;-45
2023/12/18 04:06:06;;;;;;;3.75;1.70;;;;;;;24.65;32.40;101250.63;4983996;28;20390;-49
2023/12/18 04:08:32;;;;;;;3.30;1.70;;;;;;;24.65;32.25;101256.94;4987332;28;20089;-45
2023/12/18 04:10:57;;;;;;;3.67;1.80;;;;;;;24.67;32.33;101259.25;4986073;28;20035;-45
2023/12/18 04:13:23;;;;;;;3.40;1.80;;;;;;;24.67;32.33;101260.00;4981954;28;20378;-46
2023/12/18 04:15:48;;;;;;;3.40;1.70;;;;;;;24.67;32.48;101253.72;4983002;28;20060;-52
2023/12/18 04:18:14;;;;;;;3.80;1.75;;;;;;;24.68;32.33;101255.25;4976528;28;20026;-49
2023/12/18 04:20:39;;;;;;;3.10;1.48;;;;;;;24.69;32.41;101254.03;4980416;28;20672;-51
2023/12/18 04:23:04;;;;;;;3.00;1.60;;;;;;;24.70;32.45;101264.63;4983179;28;20022;-46
2023/12/18 04:25:30;;;;;;;3.70;1.80;;;;;;;24.69;32.50;101265.84;4981310;28;20049;-47
2023/12/18 04:27:55;;;;;;;4.05;1.80;;;;;;;24.71;32.45;101265.41;4986477;28;20015;-49
2023/12/18 04:30:20;;;;;;;2.97;1.60;;;;;;;24.71;32.11;101276.44;4975951;28;20531;-48
2023/12/18 04:32:46;;;;;;;3.70;1.70;;;;;;;24.71;32.37;101270.91;4980969;28;20026;-45
2023/12/18 04:35:11;;;;;;;3.13;1.60;;;;;;;24.71;32.37;101279.19;4983397;28;20034;-52
2023/12/18 04:37:36;;;;;;;3.70;1.70;;;;;;;24.71;32.62;101268.16;4982910;28;20385;-54
2023/12/18 04:40:03;;;;;;;3.75;1.70;;;;;;;24.75;32.43;101277.09;4985470;28;20030;-45
2023/12/18 04:42:29;;;;;;;3.33;1.60;;;;;;;24.76;32.48;101273.09;4981239;28;20034;-45
2023/12/18 04:44:54;;;;;;;3.55;1.50;;;;;;;24.75;32.50;101271.56;4987293;28;20030;-46
2023/12/18 04:47:19;;;;;;;3.90;1.83;;;;;;;24.76;32.51;101267.56;4985141;28;20049;-52
2023/12/18 04:49:45;;;;;;;3.15;1.40;;;;;;;24.77;32.04;101263.59;4986749;28;20048;-45
2023/12/18 04:52:10;;;;;;;3.13;1.50;;;;;;;24.79;32.48;101266.66;4987251;28;20025;-45
2023/12/18 04:54:35;;;;;;;3.47;1.60;;;;;;;24.79;32.38;101260.34;4985705;28;20027;-49
2023/12/18 04:57:01;;;;;;;3.33;1.60;;;;;;;24.81;32.33;101260.66;4986762;28;20030;-48
2023/12/18 04:59:26;;;;;;;3.22;1.60;;;;;;;24.81;32.46;101264.19;4986651;28;20386;-49
2023/12/18 05:01:51;;;;;;;3.55;1.50;;;;;;;24.83;32.43;101261.00;4987340;28;20071;-45
2023/12/18 05:04:17;;;;;;;3.10;1.50;;;;;;;24.83;32.39;101267.28;4985692;28;20023;-47
2023/12/18 05:06:42;;;;;;;3.28;1.50;;;;;;;24.82;32.51;101260.22;4984542;28;20027;-47
2023/12/18 05:09:07;;;;;;;2.92;1.40;;;;;;;24.84;32.30;101257.78;4986684;28;20038;-45
2023/12/18 05:11:33;;;;;;;3.25;1.40;;;;;;;24.85;32.48;101264.84;4984205;28;20030;-46
2023/12/18 05:13:58;;;;;;;3.40;1.60;;;;;;;24.89;32.30;101268.22;4988313;28;20092;-49
2023/12/18 05:16:24;;;;;;;3.20;1.50;;;;;;;24.87;32.31;101273.44;4988071;28;20026;-50
2023/12/18 05:18:49;;;;;;;2.92;1.45;;;;;;;24.87;32.49;101267.91;4986020;28;20049;-48
2023/12/18 05:21:14;;;;;;;3.42;1.60;;;;;;;24.88;32.30;101263.16;4985307;28;20041;-52
2023/12/18 05:23:40;;;;;;;3.47;1.50;;;;;;;24.88;32.24;101258.41;4984051;28;20394;-49
2023/12/18 05:26:05;;;;;;;3.53;1.60;;;;;;;24.86;32.30;101266.38;4989758;28;20105;-46
2023/12/18 05:28:31;;;;;;;3.45;1.60;;;;;;;24.88;32.25;101263.94;4986503;28;20022;-50
2023/12/18 05:30:56;;;;;;;2.53;1.30;;;;;;;24.88;32.43;101258.41;4986180;28;20470;-48
2023/12/18 05:33:21;;;;;;;2.85;1.42;;;;;;;24.88;32.35;101261.16;4982504;28;20041;-52
2023/12/18 05:35:47;;;;;;;3.95;1.50;;;;;;;24.88;32.33;101263.94;4984394;28;20026;-49
2023/12/18 05:38:12;;;;;;;3.13;1.40;;;;;;;24.90;32.36;101274.53;4986122;28;20033;-46
2023/12/18 05:40:38;;;;;;;2.95;1.30;;;;;;;24.91;32.43;101276.84;4986148;28;20681;-45
2023/12/18 05:43:09;;;;;;;3.10;1.40;;;;;;;24.92;32.47;101281.13;5072765;27;20403;-52
2023/12/18 05:45:35;;;;;;;3.78;1.67;;;;;;;24.92;32.36;101281.13;5057157;28;20028;-49
2023/12/18 05:48:00;;;;;;;3.20;1.60;;;;;;;24.90;32.31;101283.59;5073048;28;20077;-45
2023/12/18 05:50:26;;;;;;;3.05;1.38;;;;;;;24.89;32.41;101298.63;5062276;28;20374;-48
2023/12/18 05:52:51;;;;;;;3.10;1.40;;;;;;;24.87;32.44;101290.00;5059313;28;20047;-50
2023/12/18 05:55:17;;;;;;;2.85;1.40;;;;;;;24.87;32.45;101287.25;5063939;28;20625;-44
2023/12/18 05:57:42;;;;;;;3.53;1.30;;;;;;;24.86;32.33;101288.47;5062285;28;20083;-51
2023/12/18 06:00:09;;;;;;;2.83;1.38;;;;;;;24.88;32.36;101290.78;5064156;28;20036;-46
2023/12/18 06:02:34;;;;;;;3.95;1.40;;;;;;;24.88;32.19;101286.03;5069805;28;20035;-48
2023/12/18 06:05:00;;;;;;;3.72;1.40;;;;;;;24.86;32.25;101271.91;5059676;28;20029;-45
2023/12/18 06:07:25;;;;;;;4.47;1.50;;;;;;;24.87;32.35;101269.91;5055668;28;20087;-46
2023/12/18 06:09:50;;;;;;;3.60;1.50;;;;;;;24.79;32.02;101276.91;5063032;28;20079;-47
2023/12/18 06:12:16;;;;;;;3.65;1.70;;;;;;;24.76;32.01;101269.56;5059505;28;20028;-47
2023/12/18 06:14:41;;;;;;;5.50;1.63;;;;;;;24.72;31.92;101266.94;5059980;28;20039;-52
2023/12/18 06:17:06;;;;;;;6.22;1.70;;;;;;;24.71;31.86;101255.13;5060916;28;20498;-48
2023/12/18 06:19:32;;;;;;;4.68;1.58;;;;;;;24.69;31.86;101259.56;5066465;28;20029;-46
2023/12/18 06:21:57;;;;;;;3.35;1.52;;;;;;;24.69;32.17;101259.56;5068952;28;20430;-48
2023/12/18 06:24:23;;;;;;;4.10;1.50;;;;;;;24.69;32.25;101262.31;5062646;28;20074;-49
2023/12/18 06:26:48;;;;;;;3.60;1.80;;;;;;;24.67;32.13;101264.75;5061473;28;20047;-48
2023/12/18 06:29:13;;;;;;;3.90;1.80;;;;;;;24.68;32.00;101274.59;5065192;28;20512;-46
2023/12/18 06:31:39;;;;;;;4.30;1.90;;;;;;;24.67;32.06;101270.28;5065922;28;20028;-45
2023/12/18 06:34:04;;;;;;;3.80;1.73;;;;;;;24.61;32.14;101272.84;5061880;28;20037;-48
2023/12/18 06:36:29;;;;;;;4.25;1.83;;;;;;;24.66;31.94;101268.75;5066541;28;20517;-46
2023/12/18 06:38:55;;;;;;;3.95;1.90;;;;;;;24.65;31.76;101269.97;5057245;28;20021;-46
2023/12/18 06:41:20;;;;;;;3.13;1.55;;;;;;;24.64;32.11;101271.19;5058245;28;20021;-45
2023/12/18 06:43:46;;;;;;;9.57;1.90;;;;;;;24.65;31.88;101273.50;5063210;28;20104;-50
2023/12/18 06:46:11;;;;;;;4.57;1.77;;;;;;;24.60;31.87;101273.31;5075852;28;20427;-45
2023/12/18 06:48:39;;;;;;;3.97;1.80;;;;;;;24.60;32.00;101276.06;5067681;28;20036;-47
2023/12/18 06:51:04;;;;;;;4.97;1.92;;;;;;;24.64;31.80;101287.75;5063045;28;20028;-46
2023/12/18 06:53:29;;;;;;;4.20;1.90;;;;;;;24.63;31.67;101286.19;5057470;28;20037;-48
2023/12/18 06:55:55;;;;;;;4.65;1.80;;;;;;;24.64;31.56;101283.00;5052931;28;20028;-57
2023/12/18 06:58:20;;;;;;;3.35;1.67;;;;;;;24.64;31.58;101279.47;5049169;28;20020;-49
2023/12/18 07:00:45;;;;;;;3.97;1.80;;;;;;;24.67;31.78;101281.31;5052398;28;20456;-45
2023/12/18 07:03:11;;;;;;;5.82;1.95;;;;;;;24.69;31.76;101287.16;5044803;28;20043;-48
2023/12/18 07:05:36;;;;;;;5.00;1.90;;;;;;;24.65;31.23;101279.00;5047622;28;20035;-47
2023/12/18 07:08:02;;;;;;;3.92;1.90;;;;;;;24.61;32.06;101277.59;5044517;28;20028;-43
2023/12/18 07:10:27;;;;;;;4.25;1.98;;;;;;;24.61;31.47;101283.13;5053283;28;20096;-45
2023/12/18 07:12:52;;;;;;;4.10;2.00;;;;;;;24.65;31.84;101286.53;5046654;28;20031;-43
2023/12/18 07:15:18;;;;;;;4.30;2.00;;;;;;;24.66;31.41;101288.06;5048288;28;20036;-43
2023/12/18 07:17:43;;;;;;;4.18;1.92;;;;;;;24.67;31.32;101286.84;5046430;28;20484;-44
2023/12/18 07:20:09;;;;;;;6.32;2.00;;;;;;;24.66;31.80;101288.84;5047380;28;20035;-48
2023/12/18 07:22:35;;;;;;;4.40;2.13;;;;;;;24.64;31.31;101293.25;5053088;28;20408;-47
2023/12/18 07:25:01;;;;;;;4.72;2.10;;;;;;;24.66;31.29;101301.88;5049147;28;20052;-46
2023/12/18 07:27:27;;;;;;;4.40;2.00;;;;;;;24.67;31.61;101303.41;5046235;28;20021;-44
2023/12/18 07:29:52;;;;;;;4.40;2.15;;;;;;;24.66;31.28;101299.09;5049412;28;20045;-47
2023/12/18 07:32:17;;;;;;;5.22;2.20;;;;;;;24.65;31.49;101300.31;5046521;28;20057;-45
2023/12/18 07:34:43;;;;;;;4.75;2.17;;;;;;;24.62;31.69;101298.47;5050766;28;20055;-46
2023/12/18 07:37:08;;;;;;;6.97;2.70;;;;;;;24.62;31.83;101306.75;5044371;28;20029;-51
2023/12/18 07:39:34;;;;;;;4.13;2.28;;;;;;;24.64;31.37;101309.84;5043429;28;20124;-48
2023/12/18 07:42:00;;;;;;;4.60;2.22;;;;;;;24.62;31.38;101295.72;5048455;28;20024;-46
2023/12/18 07:44:25;;;;;;;5.07;2.40;;;;;;;24.66;31.25;101304.63;5048488;28;20037;-45
2023/12/18 07:46:52;;;;;;;5.32;2.38;;;;;;;24.68;30.91;101297.44;5049062;28;20017;-44
2023/12/18 07:49:17;;;;;;;4.70;2.40;;;;;;;24.69;30.86;101287.16;5045039;28;20032;-48
2023/12/18 07:51:42;;;;;;;5.07;2.40;;;;;;;24.67;30.96;101287.63;5042964;28;20380;-49
2023/12/18 07:54:08;;;;;;;7.10;2.35;;;;;;;24.66;30.26;101288.84;5047632;28;20052;-50
2023/12/18 07:56:33;;;;;;;5.68;2.50;;;;;;;24.67;30.36;101292.38;5052596;28;20021;-48
2023/12/18 07:58:59;;;;;;;5.00;2.35;;;;;;;24.74;30.31;101286.59;5047541;28;20032;-47
2023/12/18 08:01:25;;;;;;;11.25;2.80;;;;;;;24.81;30.68;101291.81;5046635;28;20060;-46
2023/12/18 08:03:50;;;;;;;6.63;2.55;;;;;;;24.87;30.71;101284.50;5048375;28;20040;-51
2023/12/18 08:06:16;;;;;;;8.23;2.75;;;;;;;24.82;30.60;101293.34;5043456;28;20039;-47
2023/12/18 08:08:41;;;;;;;7.05;2.90;;;;;;;24.71;30.58;101284.72;5050928;28;20048;-51
2023/12/18 08:11:06;;;;;;;6.80;2.92;;;;;;;24.68;30.19;101289.16;5054106;28;20032;-53
2023/12/18 08:13:38;;;;;;;5.05;2.80;;;;;;;24.65;30.35;101289.28;5052291;28;20051;-59
2023/12/18 08:16:04;;;;;;;6.07;2.83;;;;;;;24.63;30.36;101291.72;5052074;28;20085;-46
2023/12/18 08:18:29;;;;;;;5.13;2.70;;;;;;;24.61;30.45;101305.97;5046167;28;20111;-46
2023/12/18 08:20:55;;;;;;;6.18;3.10;;;;;;;24.62;30.41;101306.75;5051840;28;20017;-50
2023/12/18 08:23:21;;;;;;;5.72;3.03;;;;;;;24.59;30.55;101308.41;5049719;28;20021;-55
2023/12/18 08:25:46;;;;;;;4.85;2.95;;;;;;;24.55;30.34;101324.38;5044338;28;20035;-48
2023/12/18 08:28:11;;;;;;;5.45;2.90;;;;;;;24.55;30.64;101320.84;5055462;28;20709;-49
2023/12/18 08:30:37;;;;;;;6.32;2.90;;;;;;;24.55;30.53;101329.88;5045362;28;20032;-51
2023/12/18 08:33:02;;;;;;;5.53;3.10;;;;;;;24.53;30.71;101332.31;5044107;28;20086;-46
2023/12/18 08:35:28;;;;;;;7.47;3.03;;;;;;;24.65;30.53;101334.22;5048576;28;20029;-45
2023/12/18 08:37:53;;;;;;;5.90;3.05;;;;;;;24.69;30.29;101323.06;5050353;28;20385;-45
2023/12/18 08:40:18;;;;;;;4.78;2.80;;;;;;;24.67;30.21;101319.97;5043759;28;20025;-45
2023/12/18 08:42:44;;;;;;;6.15;2.60;;;;;;;24.64;30.48;101315.34;5045683;28;20124;-45
2023/12/18 08:45:09;;;;;;;4.90;2.60;;;;;;;24.62;30.36;101312.28;5048680;28;20040;-45
2023/12/18 08:47:34;;;;;;;4.70;2.67;;;;;;;24.61;30.44;101310.72;5051688;28;20495;-45
2023/12/18 08:50:00;;;;;;;4.78;2.70;;;;;;;24.60;30.36;101312.72;5052719;28;20025;-45
2023/12/18 08:52:26;;;;;;;6.35;3.28;;;;;;;24.54;30.51;101317.31;5054012;28;20048;-48
2023/12/18 08:54:51;;;;;;;5.15;2.97;;;;;;;24.61;31.06;101313.50;5050127;28;20040;-51
2023/12/18 08:57:17;;;;;;;10.63;3.35;;;;;;;24.65;31.33;101308.63;5052979;28;20027;-48
2023/12/18 08:59:42;;;;;;;8.50;3.13;;;;;;;24.64;31.27;101309.84;5052465;28;20040;-50
2023/12/18 09:02:09;;;;;;;8.85;3.30;;;;;;;24.60;31.41;101311.94;5044553;28;20035;-47
2023/12/18 09:04:34;;;;;;;7.00;3.40;;;;;;;24.64;31.49;101309.84;5056043;28;20032;-48
2023/12/18 09:07:00;;;;;;;6.13;3.05;;;;;;;24.61;31.55;101310.72;5048319;28;20486;-48
2023/12/18 09:09:26;;;;;;;6.05;2.92;;;;;;;24.58;31.64;101306.13;5050515;28;20101;-48
2023/12/18 09:11:51;;;;;;;9.60;3.40;;;;;;;24.60;31.35;101309.19;5052064;28;20024;-47
2023/12/18 09:14:16;;;;;;;5.30;3.20;;;;;;;24.58;31.14;101306.88;5050325;28;20033;-52
2023/12/18 09:16:42;;;;;;;11.88;3.08;;;;;;;24.58;31.18;101304.13;5053063;28;20036;-51
2023/12/18 09:19:07;;;;;;;6.10;3.30;;;;;;;24.65;31.11;101308.63;5047732;28;20055;-46
2023/12/18 09:21:32;;;;;;;5.43;3.20;;;;;;;24.54;31.30;101299.97;5052260;28;20020;-44
2023/12/18 09:23:58;;;;;;;5.93;3.20;;;;;;;24.54;31.52;101302.72;5047447;28;20430;-44
2023/12/18 09:26:23;;;;;;;5.55;3.00;;;;;;;24.37;31.49;101305.69;5048020;28;20020;-46
2023/12/18 09:28:48;;;;;;;5.75;3.30;;;;;;;24.19;31.73;101308.28;5053043;28;20031;-46
2023/12/18 09:31:16;;;;;;;7.90;3.13;;;;;;;24.16;31.75;101306.44;5047762;28;20078;-46
2023/12/18 09:33:41;;;;;;;5.53;3.08;;;;;;;24.16;31.74;101303.69;5048562;28;20028;-46
2023/12/18 09:36:09;;;;;;;5.18;2.95;;;;;;;24.23;31.64;101305.41;5047764;28;20035;-47
2023/12/18 09:38:34;;;;;;;4.90;2.90;;;;;;;24.25;31.29;101308.50;5049635;28;20024;-48
2023/12/18 09:41:00;;;;;;;6.28;3.50;;;;;;;24.26;31.14;101301.78;5051638;28;20495;-46
2023/12/18 09:43:27;;;;;;;5.53;3.10;;;;;;;24.27;31.38;101303.31;5048313;28;20173;-53
2023/12/18 09:45:52;;;;;;;5.57;3.30;;;;;;;24.34;31.18;101298.31;5050601;28;20029;-52
2023/12/18 09:48:18;;;;;;;5.10;3.25;;;;;;;24.37;31.20;101291.91;5048021;28;20027;-51
2023/12/18 09:50:43;;;;;;;5.75;3.17;;;;;;;24.37;30.75;101285.63;5051224;28;20035;-49
2023/12/18 09:53:10;;;;;;;9.10;3.20;;;;;;;24.36;31.08;101287.59;5044406;28;20017;-46
2023/12/18 09:55:35;;;;;;;6.05;2.88;;;;;;;24.37;31.15;101291.13;5047150;28;20037;-48
2023/12/18 09:58:01;;;;;;;5.43;3.45;;;;;;;24.46;30.98;101293.94;5050021;28;20045;-47
2023/12/18 10:00:27;;;;;;;4.90;3.00;;;;;;;24.41;30.90;101290.97;5044472;28;20533;-45
2023/12/18 10:02:54;;;;;;;5.22;3.20;;;;;;;24.38;30.85;101301.69;5041570;28;20044;-51
2023/12/18 10:05:19;;;;;;;7.25;3.45;;;;;;;24.41;30.77;101296.50;5047111;28;20055;-55
2023/12/18 10:07:45;;;;;;;6.75;3.50;;;;;;;24.39;30.61;101300.47;5049666;28;20215;-54
2023/12/18 10:10:10;;;;;;;6.03;3.45;;;;;;;24.33;30.55;101296.78;5045555;28;20021;-54
2023/12/18 10:12:38;;;;;;;7.80;3.50;;;;;;;24.28;31.08;101289.06;5045234;28;20376;-54
2023/12/18 10:15:04;;;;;;;;;;;;;;;24.32;31.13;101284.19;5043611;28;20040;-55
2023/12/18 10:17:30;;;;;;;6.68;3.20;;;;;;;24.35;30.65;101291.59;5037625;28;19913;-52
2023/12/18 10:19:56;;;;;;;6.67;3.47;;;;;;;24.35;31.09;101288.81;5044162;28;20027;-43
2023/12/18 10:22:21;;;;;;;5.35;3.00;;;;;;;24.32;31.00;101281.44;5051539;28;20012;-44
2023/12/18 10:24:47;;;;;;;5.65;3.03;;;;;;;24.33;30.79;101277.47;5042887;28;20047;-43
2023/12/18 10:27:12;;;;;;;5.68;3.28;;;;;;;24.32;31.00;101267.63;5048383;28;20075;-54
2023/12/18 10:29:37;;;;;;;5.60;2.90;;;;;;;24.37;30.88;101264.31;5046122;28;20017;-50
2023/12/18 10:32:03;;;;;;;5.72;3.13;;;;;;;24.38;31.09;101260.28;5046997;28;20046;-50
2023/12/18 10:34:31;;;;;;;4.75;2.78;;;;;;;24.41;30.83;101263.38;5055889;28;20047;-49
2023/12/18 10:36:56;;;;;;;;;;;;;;;24.41;30.94;101257.84;5045460;28;20018;-52
2023/12/18 10:39:21;;;;;;;5.97;2.97;;;;;;;24.41;30.80;101250.34;5048583;28;20623;-51
2023/12/18 10:41:54;;;;;;;5.78;3.00;;;;;;;24.42;30.77;101259.41;5049655;28;20937;-47
2023/12/18 10:44:21;;;;;;;4.60;2.78;;;;;;;24.41;30.76;101260.63;5040004;28;20055;-51
2023/12/18 10:46:46;;;;;;;4.90;2.72;;;;;;;24.40;30.67;101240.53;5050787;28;20500;-49
2023/12/18 10:49:11;;;;;;;5.88;2.80;;;;;;;24.42;30.71;101242.84;5047772;28;20103;-50
2023/12/18 10:51:37;;;;;;;7.20;2.97;;;;;;;24.46;30.53;101235.97;5051382;28;20013;-48
2023/12/18 10:54:02;;;;;;;6.40;3.63;;;;;;;24.53;30.70;101240.47;5036005;28;20033;-48
2023/12/18 10:56:28;;;;;;;7.53;5.63;;;;;;;24.58;30.70;101245.41;5051216;28;20103;-44
2023/12/18 10:58:55;;;;;;;9.27;6.93;;;;;;;24.54;30.72;101240.00;5051577;28;20402;-45
2023/12/18 11:01:20;;;;;;;11.07;8.13;;;;;;;24.52;30.71;101239.69;5033677;28;20073;-46
2023/12/18 11:03:46;;;;;;;11.63;8.95;;;;;;;24.50;30.81;101238.59;5051384;28;20032;-45
2023/12/18 11:06:11;;;;;;;13.85;10.90;;;;;;;24.49;30.61;101226.78;5041312;28;20021;-47
2023/12/18 11:08:36;;;;;;;14.32;10.40;;;;;;;24.51;30.84;101223.59;5056285;28;20029;-46
2023/12/18 11:11:02;;;;;;;14.82;11.35;;;;;;;24.51;30.57;101218.06;5041934;28;20034;-47
2023/12/18 11:13:29;;;;;;;14.23;11.73;;;;;;;24.48;30.72;101213.44;5047145;28;20021;-45
2023/12/18 11:16:35;;;;;;;13.82;11.43;;;;;;;24.47;30.91;101206.38;5053752;28;20146;-47